sensor_id;sensor_type;location;lat;lon;timestamp;P1;durP1;ratioP1;P2;durP2;ratioP2
37241;SDS011;23135;51.078;12.108;2022-08-03T00:00:08;1.63;;;0.20;;
37241;SDS011;23135;51.078;12.108;2022-08-03T00:02:35;3.97;;;0.20;;
37241;SDS011;23135;51.078;12.108;2022-08-03T00:05:01;2.42;;;0.10;;
37241;SDS011;23135;51.078;12.108;2022-08-03T00:07:26;3.05;;;0.30;;
37241;SDS011;23135;51.078;12.108;2022-08-03T00:09:52;4.13;;;0.60;;
37241;SDS011;23135;51.078;12.108;2022-08-03T00:12:17;2.92;;;1.08;;
37241;SDS011;23135;51.078;12.108;2022-08-03T00:14:43;3.53;;;0.60;;
37241;SDS011;23135;51.078;12.108;2022-08-03T00:17:09;10.85;;;1.40;;
37241;SDS011;23135;51.078;12.108;2022-08-03T00:19:34;4.00;;;0.95;;
37241;SDS011;23135;51.078;12.108;2022-08-03T00:22:00;8.15;;;0.50;;
37241;SDS011;23135;51.078;12.108;2022-08-03T00:24:26;7.53;;;0.63;;
37241;SDS011;23135;51.078;12.108;2022-08-03T00:26:51;2.65;;;0.65;;
37241;SDS011;23135;51.078;12.108;2022-08-03T00:29:17;0.98;;;0.63;;
37241;SDS011;23135;51.078;12.108;2022-08-03T00:31:42;1.88;;;1.08;;
37241;SDS011;23135;51.078;12.108;2022-08-03T00:34:08;1.30;;;0.77;;
37241;SDS011;23135;51.078;12.108;2022-08-03T00:36:33;15.40;;;1.00;;
37241;SDS011;23135;51.078;12.108;2022-08-03T00:38:59;3.30;;;1.00;;
37241;SDS011;23135;51.078;12.108;2022-08-03T00:41:25;5.88;;;0.95;;
37241;SDS011;23135;51.078;12.108;2022-08-03T00:43:50;1.65;;;0.70;;
37241;SDS011;23135;51.078;12.108;2022-08-03T00:46:16;3.15;;;1.35;;
37241;SDS011;23135;51.078;12.108;2022-08-03T00:48:41;4.32;;;0.77;;
37241;SDS011;23135;51.078;12.108;2022-08-03T00:51:07;6.68;;;1.42;;
37241;SDS011;23135;51.078;12.108;2022-08-03T00:53:33;2.63;;;0.75;;
37241;SDS011;23135;51.078;12.108;2022-08-03T00:56:00;2.67;;;1.05;;
37241;SDS011;23135;51.078;12.108;2022-08-03T00:58:25;3.28;;;0.68;;
37241;SDS011;23135;51.078;12.108;2022-08-03T01:00:51;3.05;;;1.52;;
37241;SDS011;23135;51.078;12.108;2022-08-03T01:03:16;4.07;;;1.48;;
37241;SDS011;23135;51.078;12.108;2022-08-03T01:05:52;11.07;;;0.57;;
37241;SDS011;23135;51.078;12.108;2022-08-03T01:08:48;5.80;;;0.52;;
37241;SDS011;23135;51.078;12.108;2022-08-03T01:16:47;2.42;;;0.70;;
37241;SDS011;23135;51.078;12.108;2022-08-03T01:19:26;2.38;;;1.30;;
37241;SDS011;23135;51.078;12.108;2022-08-03T01:27:42;7.13;;;1.00;;
37241;SDS011;23135;51.078;12.108;2022-08-03T01:30:19;6.15;;;0.80;;
37241;SDS011;23135;51.078;12.108;2022-08-03T01:32:53;1.35;;;0.90;;
37241;SDS011;23135;51.078;12.108;2022-08-03T01:37:56;0.88;;;0.82;;
37241;SDS011;23135;51.078;12.108;2022-08-03T01:40:24;4.07;;;1.17;;
37241;SDS011;23135;51.078;12.108;2022-08-03T01:42:53;3.92;;;1.17;;
37241;SDS011;23135;51.078;12.108;2022-08-03T01:45:21;1.95;;;1.38;;
37241;SDS011;23135;51.078;12.108;2022-08-03T01:47:48;5.18;;;1.17;;
37241;SDS011;23135;51.078;12.108;2022-08-03T01:50:14;4.68;;;1.35;;
37241;SDS011;23135;51.078;12.108;2022-08-03T01:52:45;4.10;;;1.60;;
37241;SDS011;23135;51.078;12.108;2022-08-03T01:55:12;8.50;;;1.10;;
37241;SDS011;23135;51.078;12.108;2022-08-03T01:57:41;2.92;;;1.05;;
37241;SDS011;23135;51.078;12.108;2022-08-03T02:00:08;2.88;;;1.60;;
37241;SDS011;23135;51.078;12.108;2022-08-03T02:02:35;3.03;;;1.40;;
37241;SDS011;23135;51.078;12.108;2022-08-03T02:05:02;6.35;;;1.50;;
37241;SDS011;23135;51.078;12.108;2022-08-03T02:07:30;8.30;;;1.92;;
37241;SDS011;23135;51.078;12.108;2022-08-03T02:09:58;3.72;;;1.55;;
37241;SDS011;23135;51.078;12.108;2022-08-03T02:12:26;5.45;;;2.40;;
37241;SDS011;23135;51.078;12.108;2022-08-03T02:14:53;9.00;;;2.00;;
37241;SDS011;23135;51.078;12.108;2022-08-03T02:17:20;6.63;;;1.92;;
37241;SDS011;23135;51.078;12.108;2022-08-03T02:19:47;5.25;;;2.13;;
37241;SDS011;23135;51.078;12.108;2022-08-03T02:22:15;5.95;;;2.75;;
37241;SDS011;23135;51.078;12.108;2022-08-03T02:24:42;6.47;;;2.90;;
37241;SDS011;23135;51.078;12.108;2022-08-03T02:27:26;9.82;;;2.92;;
37241;SDS011;23135;51.078;12.108;2022-08-03T02:29:55;10.52;;;3.05;;
37241;SDS011;23135;51.078;12.108;2022-08-03T02:32:28;13.95;;;2.90;;
37241;SDS011;23135;51.078;12.108;2022-08-03T02:34:57;5.25;;;2.60;;
37241;SDS011;23135;51.078;12.108;2022-08-03T02:37:25;7.45;;;2.72;;
37241;SDS011;23135;51.078;12.108;2022-08-03T02:39:56;17.67;;;4.18;;
37241;SDS011;23135;51.078;12.108;2022-08-03T02:42:27;6.25;;;1.80;;
37241;SDS011;23135;51.078;12.108;2022-08-03T02:44:56;8.27;;;2.40;;
37241;SDS011;23135;51.078;12.108;2022-08-03T02:47:26;7.63;;;2.38;;
37241;SDS011;23135;51.078;12.108;2022-08-03T02:49:53;5.90;;;2.30;;
37241;SDS011;23135;51.078;12.108;2022-08-03T02:52:22;4.07;;;1.80;;
37241;SDS011;23135;51.078;12.108;2022-08-03T02:54:50;5.85;;;2.33;;
37241;SDS011;23135;51.078;12.108;2022-08-03T02:57:19;5.30;;;2.15;;
37241;SDS011;23135;51.078;12.108;2022-08-03T02:59:45;7.80;;;3.10;;
37241;SDS011;23135;51.078;12.108;2022-08-03T03:02:11;5.25;;;1.92;;
37241;SDS011;23135;51.078;12.108;2022-08-03T03:04:39;9.75;;;2.22;;
37241;SDS011;23135;51.078;12.108;2022-08-03T03:07:06;8.93;;;2.80;;
37241;SDS011;23135;51.078;12.108;2022-08-03T03:09:32;6.15;;;2.38;;
37241;SDS011;23135;51.078;12.108;2022-08-03T03:11:58;4.57;;;1.92;;
37241;SDS011;23135;51.078;12.108;2022-08-03T03:14:26;6.65;;;1.63;;
37241;SDS011;23135;51.078;12.108;2022-08-03T03:16:52;10.43;;;2.45;;
37241;SDS011;23135;51.078;12.108;2022-08-03T03:19:19;3.92;;;2.17;;
37241;SDS011;23135;51.078;12.108;2022-08-03T03:21:45;11.90;;;3.33;;
37241;SDS011;23135;51.078;12.108;2022-08-03T03:24:11;7.60;;;2.72;;
37241;SDS011;23135;51.078;12.108;2022-08-03T03:26:38;10.27;;;3.78;;
37241;SDS011;23135;51.078;12.108;2022-08-03T03:29:03;5.85;;;2.08;;
37241;SDS011;23135;51.078;12.108;2022-08-03T03:31:30;4.72;;;2.60;;
37241;SDS011;23135;51.078;12.108;2022-08-03T03:33:57;6.55;;;2.25;;
37241;SDS011;23135;51.078;12.108;2022-08-03T03:36:23;10.80;;;3.28;;
37241;SDS011;23135;51.078;12.108;2022-08-03T03:38:49;7.53;;;2.53;;
37241;SDS011;23135;51.078;12.108;2022-08-03T03:41:15;8.60;;;2.42;;
37241;SDS011;23135;51.078;12.108;2022-08-03T03:43:41;6.45;;;3.38;;
37241;SDS011;23135;51.078;12.108;2022-08-03T03:46:07;5.60;;;2.45;;
37241;SDS011;23135;51.078;12.108;2022-08-03T03:48:35;5.55;;;2.22;;
37241;SDS011;23135;51.078;12.108;2022-08-03T03:51:02;8.95;;;2.97;;
37241;SDS011;23135;51.078;12.108;2022-08-03T03:53:28;9.52;;;3.00;;
37241;SDS011;23135;51.078;12.108;2022-08-03T03:55:54;8.85;;;2.60;;
37241;SDS011;23135;51.078;12.108;2022-08-03T03:58:19;6.95;;;2.55;;
37241;SDS011;23135;51.078;12.108;2022-08-03T04:00:45;6.53;;;2.70;;
37241;SDS011;23135;51.078;12.108;2022-08-03T04:03:11;5.43;;;2.45;;
37241;SDS011;23135;51.078;12.108;2022-08-03T04:05:37;9.13;;;2.53;;
37241;SDS011;23135;51.078;12.108;2022-08-03T04:08:21;6.90;;;3.00;;
37241;SDS011;23135;51.078;12.108;2022-08-03T04:11:08;10.40;;;2.75;;
37241;SDS011;23135;51.078;12.108;2022-08-03T04:13:48;12.73;;;3.53;;
37241;SDS011;23135;51.078;12.108;2022-08-03T04:16:17;9.45;;;3.30;;
37241;SDS011;23135;51.078;12.108;2022-08-03T04:18:46;4.65;;;2.80;;
37241;SDS011;23135;51.078;12.108;2022-08-03T04:21:16;9.38;;;3.45;;
37241;SDS011;23135;51.078;12.108;2022-08-03T04:23:45;3.88;;;2.53;;
37241;SDS011;23135;51.078;12.108;2022-08-03T04:26:13;8.05;;;3.70;;
37241;SDS011;23135;51.078;12.108;2022-08-03T04:28:42;8.48;;;2.40;;
37241;SDS011;23135;51.078;12.108;2022-08-03T04:31:10;4.28;;;1.98;;
37241;SDS011;23135;51.078;12.108;2022-08-03T04:33:37;5.13;;;2.15;;
37241;SDS011;23135;51.078;12.108;2022-08-03T04:36:06;6.43;;;2.17;;
37241;SDS011;23135;51.078;12.108;2022-08-03T04:38:43;2.50;;;2.17;;
37241;SDS011;23135;51.078;12.108;2022-08-03T04:41:21;10.90;;;2.10;;
37241;SDS011;23135;51.078;12.108;2022-08-03T04:43:48;3.08;;;2.22;;
37241;SDS011;23135;51.078;12.108;2022-08-03T04:46:17;4.80;;;2.10;;
37241;SDS011;23135;51.078;12.108;2022-08-03T04:48:46;5.30;;;2.45;;
37241;SDS011;23135;51.078;12.108;2022-08-03T04:51:12;3.30;;;2.08;;
37241;SDS011;23135;51.078;12.108;2022-08-03T04:53:39;2.28;;;2.00;;
37241;SDS011;23135;51.078;12.108;2022-08-03T04:56:06;6.57;;;1.85;;
37241;SDS011;23135;51.078;12.108;2022-08-03T04:58:32;3.83;;;1.65;;
37241;SDS011;23135;51.078;12.108;2022-08-03T05:00:58;1.85;;;1.20;;
37241;SDS011;23135;51.078;12.108;2022-08-03T05:03:23;6.55;;;2.38;;
37241;SDS011;23135;51.078;12.108;2022-08-03T05:05:49;3.97;;;1.05;;
37241;SDS011;23135;51.078;12.108;2022-08-03T05:08:19;4.22;;;1.90;;
37241;SDS011;23135;51.078;12.108;2022-08-03T05:10:44;4.57;;;1.35;;
37241;SDS011;23135;51.078;12.108;2022-08-03T05:13:10;1.60;;;1.00;;
37241;SDS011;23135;51.078;12.108;2022-08-03T05:15:37;1.30;;;1.00;;
37241;SDS011;23135;51.078;12.108;2022-08-03T05:18:03;5.93;;;1.60;;
37241;SDS011;23135;51.078;12.108;2022-08-03T05:20:29;1.58;;;1.20;;
37241;SDS011;23135;51.078;12.108;2022-08-03T05:22:55;2.00;;;1.20;;
37241;SDS011;23135;51.078;12.108;2022-08-03T05:25:21;3.83;;;1.20;;
37241;SDS011;23135;51.078;12.108;2022-08-03T05:27:46;1.90;;;1.10;;
37241;SDS011;23135;51.078;12.108;2022-08-03T05:30:12;4.80;;;1.27;;
37241;SDS011;23135;51.078;12.108;2022-08-03T05:32:38;2.85;;;1.20;;
37241;SDS011;23135;51.078;12.108;2022-08-03T05:35:04;4.13;;;0.70;;
37241;SDS011;23135;51.078;12.108;2022-08-03T05:37:30;4.20;;;2.03;;
37241;SDS011;23135;51.078;12.108;2022-08-03T05:39:55;2.38;;;1.15;;
37241;SDS011;23135;51.078;12.108;2022-08-03T05:42:21;5.57;;;0.75;;
37241;SDS011;23135;51.078;12.108;2022-08-03T05:44:46;1.88;;;0.63;;
37241;SDS011;23135;51.078;12.108;2022-08-03T05:47:12;1.33;;;0.32;;
37241;SDS011;23135;51.078;12.108;2022-08-03T05:49:37;1.00;;;0.55;;
37241;SDS011;23135;51.078;12.108;2022-08-03T05:52:03;2.10;;;0.45;;
37241;SDS011;23135;51.078;12.108;2022-08-03T05:54:29;5.28;;;0.85;;
37241;SDS011;23135;51.078;12.108;2022-08-03T05:56:54;3.53;;;0.55;;
37241;SDS011;23135;51.078;12.108;2022-08-03T05:59:20;1.33;;;0.43;;
37241;SDS011;23135;51.078;12.108;2022-08-03T06:01:45;4.22;;;0.28;;
37241;SDS011;23135;51.078;12.108;2022-08-03T06:04:11;4.90;;;0.80;;
37241;SDS011;23135;51.078;12.108;2022-08-03T06:06:37;4.00;;;0.60;;
37241;SDS011;23135;51.078;12.108;2022-08-03T06:09:03;3.53;;;0.30;;
37241;SDS011;23135;51.078;12.108;2022-08-03T06:11:28;4.97;;;0.60;;
37241;SDS011;23135;51.078;12.108;2022-08-03T06:13:54;3.08;;;0.30;;
37241;SDS011;23135;51.078;12.108;2022-08-03T06:16:19;1.75;;;0.93;;
37241;SDS011;23135;51.078;12.108;2022-08-03T06:18:45;1.20;;;0.55;;
37241;SDS011;23135;51.078;12.108;2022-08-03T06:21:10;1.35;;;0.30;;
37241;SDS011;23135;51.078;12.108;2022-08-03T06:23:36;1.75;;;0.40;;
37241;SDS011;23135;51.078;12.108;2022-08-03T06:26:01;7.43;;;0.82;;
37241;SDS011;23135;51.078;12.108;2022-08-03T06:28:27;4.82;;;0.43;;
37241;SDS011;23135;51.078;12.108;2022-08-03T06:30:53;1.13;;;0.30;;
37241;SDS011;23135;51.078;12.108;2022-08-03T06:33:18;4.15;;;0.68;;
37241;SDS011;23135;51.078;12.108;2022-08-03T06:35:44;2.38;;;0.60;;
37241;SDS011;23135;51.078;12.108;2022-08-03T06:38:10;7.50;;;0.55;;
37241;SDS011;23135;51.078;12.108;2022-08-03T06:40:35;0.32;;;0.28;;
37241;SDS011;23135;51.078;12.108;2022-08-03T06:43:04;1.75;;;0.35;;
37241;SDS011;23135;51.078;12.108;2022-08-03T06:45:30;4.88;;;1.00;;
37241;SDS011;23135;51.078;12.108;2022-08-03T06:48:04;3.92;;;0.28;;
37241;SDS011;23135;51.078;12.108;2022-08-03T06:50:34;1.23;;;0.20;;
37241;SDS011;23135;51.078;12.108;2022-08-03T06:53:01;1.85;;;0.30;;
37241;SDS011;23135;51.078;12.108;2022-08-03T06:55:27;0.57;;;0.08;;
37241;SDS011;23135;51.078;12.108;2022-08-03T06:57:53;4.13;;;0.22;;
37241;SDS011;23135;51.078;12.108;2022-08-03T07:00:19;3.60;;;0.75;;
37241;SDS011;23135;51.078;12.108;2022-08-03T07:02:45;0.03;;;0.00;;
37241;SDS011;23135;51.078;12.108;2022-08-03T07:05:11;3.97;;;0.20;;
37241;SDS011;23135;51.078;12.108;2022-08-03T07:07:37;1.02;;;0.13;;
37241;SDS011;23135;51.078;12.108;2022-08-03T07:10:03;2.88;;;0.40;;
37241;SDS011;23135;51.078;12.108;2022-08-03T07:12:30;3.00;;;0.20;;
37241;SDS011;23135;51.078;12.108;2022-08-03T07:14:57;4.13;;;0.30;;
37241;SDS011;23135;51.078;12.108;2022-08-03T07:17:24;4.90;;;0.63;;
37241;SDS011;23135;51.078;12.108;2022-08-03T07:19:49;4.13;;;0.40;;
37241;SDS011;23135;51.078;12.108;2022-08-03T07:22:15;0.85;;;0.20;;
37241;SDS011;23135;51.078;12.108;2022-08-03T07:24:41;1.98;;;0.10;;
37241;SDS011;23135;51.078;12.108;2022-08-03T07:27:07;4.68;;;0.60;;
37241;SDS011;23135;51.078;12.108;2022-08-03T07:29:33;5.45;;;0.15;;
37241;SDS011;23135;51.078;12.108;2022-08-03T07:31:59;3.05;;;0.57;;
37241;SDS011;23135;51.078;12.108;2022-08-03T07:34:25;3.08;;;0.82;;
37241;SDS011;23135;51.078;12.108;2022-08-03T07:36:51;5.70;;;0.10;;
37241;SDS011;23135;51.078;12.108;2022-08-03T07:39:17;0.80;;;0.30;;
37241;SDS011;23135;51.078;12.108;2022-08-03T07:41:42;2.22;;;0.22;;
37241;SDS011;23135;51.078;12.108;2022-08-03T07:44:08;2.83;;;0.08;;
37241;SDS011;23135;51.078;12.108;2022-08-03T07:46:33;4.55;;;0.20;;
37241;SDS011;23135;51.078;12.108;2022-08-03T07:48:59;2.05;;;0.20;;
37241;SDS011;23135;51.078;12.108;2022-08-03T07:51:25;4.78;;;0.13;;
37241;SDS011;23135;51.078;12.108;2022-08-03T07:53:50;4.20;;;0.32;;
37241;SDS011;23135;51.078;12.108;2022-08-03T07:56:16;2.10;;;0.20;;
37241;SDS011;23135;51.078;12.108;2022-08-03T07:58:41;4.53;;;0.28;;
37241;SDS011;23135;51.078;12.108;2022-08-03T08:01:07;4.70;;;0.25;;
37241;SDS011;23135;51.078;12.108;2022-08-03T08:03:33;0.25;;;0.20;;
37241;SDS011;23135;51.078;12.108;2022-08-03T08:05:58;5.60;;;0.10;;
37241;SDS011;23135;51.078;12.108;2022-08-03T08:08:24;3.58;;;0.20;;
37241;SDS011;23135;51.078;12.108;2022-08-03T08:10:49;2.97;;;0.43;;
37241;SDS011;23135;51.078;12.108;2022-08-03T08:13:15;6.20;;;0.30;;
37241;SDS011;23135;51.078;12.108;2022-08-03T08:15:40;6.13;;;0.45;;
37241;SDS011;23135;51.078;12.108;2022-08-03T08:18:06;8.13;;;0.30;;
37241;SDS011;23135;51.078;12.108;2022-08-03T08:20:33;4.30;;;0.20;;
37241;SDS011;23135;51.078;12.108;2022-08-03T08:23:02;1.55;;;0.10;;
37241;SDS011;23135;51.078;12.108;2022-08-03T08:25:29;0.57;;;0.00;;
37241;SDS011;23135;51.078;12.108;2022-08-03T08:27:56;0.38;;;0.10;;
37241;SDS011;23135;51.078;12.108;2022-08-03T08:30:22;1.15;;;0.10;;
37241;SDS011;23135;51.078;12.108;2022-08-03T08:32:48;1.23;;;0.17;;
37241;SDS011;23135;51.078;12.108;2022-08-03T08:35:15;0.47;;;0.47;;
37241;SDS011;23135;51.078;12.108;2022-08-03T08:37:41;4.18;;;0.68;;
37241;SDS011;23135;51.078;12.108;2022-08-03T08:40:08;0.32;;;0.10;;
37241;SDS011;23135;51.078;12.108;2022-08-03T08:42:38;0.28;;;0.10;;
37241;SDS011;23135;51.078;12.108;2022-08-03T08:45:08;0.70;;;0.30;;
37241;SDS011;23135;51.078;12.108;2022-08-03T08:47:38;0.55;;;0.00;;
37241;SDS011;23135;51.078;12.108;2022-08-03T08:50:06;1.20;;;0.20;;
37241;SDS011;23135;51.078;12.108;2022-08-03T08:52:33;1.35;;;0.00;;
37241;SDS011;23135;51.078;12.108;2022-08-03T08:55:06;0.40;;;0.10;;
37241;SDS011;23135;51.078;12.108;2022-08-03T08:57:35;2.70;;;0.32;;
37241;SDS011;23135;51.078;12.108;2022-08-03T09:00:06;3.40;;;0.22;;
37241;SDS011;23135;51.078;12.108;2022-08-03T09:02:42;1.67;;;0.10;;
37241;SDS011;23135;51.078;12.108;2022-08-03T09:05:09;2.22;;;0.13;;
37241;SDS011;23135;51.078;12.108;2022-08-03T09:07:40;0.30;;;0.10;;
37241;SDS011;23135;51.078;12.108;2022-08-03T09:10:06;1.17;;;0.00;;
37241;SDS011;23135;51.078;12.108;2022-08-03T09:12:37;1.20;;;0.10;;
37241;SDS011;23135;51.078;12.108;2022-08-03T09:17:55;1.13;;;0.20;;
37241;SDS011;23135;51.078;12.108;2022-08-03T09:20:24;0.50;;;0.40;;
37241;SDS011;23135;51.078;12.108;2022-08-03T09:22:52;3.42;;;0.00;;
37241;SDS011;23135;51.078;12.108;2022-08-03T09:25:28;0.38;;;0.08;;
37241;SDS011;23135;51.078;12.108;2022-08-03T09:28:04;0.60;;;0.10;;
37241;SDS011;23135;51.078;12.108;2022-08-03T09:30:30;0.05;;;0.03;;
37241;SDS011;23135;51.078;12.108;2022-08-03T09:33:03;1.52;;;0.00;;
37241;SDS011;23135;51.078;12.108;2022-08-03T09:35:30;1.08;;;0.05;;
37241;SDS011;23135;51.078;12.108;2022-08-03T09:38:08;7.00;;;0.50;;
37241;SDS011;23135;51.078;12.108;2022-08-03T09:40:35;2.28;;;0.20;;
37241;SDS011;23135;51.078;12.108;2022-08-03T09:43:01;1.80;;;0.00;;
37241;SDS011;23135;51.078;12.108;2022-08-03T09:45:27;4.70;;;0.00;;
37241;SDS011;23135;51.078;12.108;2022-08-03T09:47:53;0.40;;;0.00;;
37241;SDS011;23135;51.078;12.108;2022-08-03T09:50:20;2.70;;;0.00;;
37241;SDS011;23135;51.078;12.108;2022-08-03T09:52:46;0.10;;;0.10;;
37241;SDS011;23135;51.078;12.108;2022-08-03T09:55:15;1.92;;;0.10;;
37241;SDS011;23135;51.078;12.108;2022-08-03T09:57:41;8.98;;;0.20;;
37241;SDS011;23135;51.078;12.108;2022-08-03T10:02:40;1.55;;;0.10;;
37241;SDS011;23135;51.078;12.108;2022-08-03T10:05:08;1.13;;;0.00;;
37241;SDS011;23135;51.078;12.108;2022-08-03T10:07:42;2.70;;;0.10;;
37241;SDS011;23135;51.078;12.108;2022-08-03T10:10:09;0.55;;;0.03;;
37241;SDS011;23135;51.078;12.108;2022-08-03T10:12:36;4.00;;;0.10;;
37241;SDS011;23135;51.078;12.108;2022-08-03T10:15:03;4.72;;;0.13;;
37241;SDS011;23135;51.078;12.108;2022-08-03T10:17:29;4.50;;;0.00;;
37241;SDS011;23135;51.078;12.108;2022-08-03T10:19:55;4.30;;;0.20;;
37241;SDS011;23135;51.078;12.108;2022-08-03T10:22:23;2.35;;;0.10;;
37241;SDS011;23135;51.078;12.108;2022-08-03T10:24:52;0.77;;;0.10;;
37241;SDS011;23135;51.078;12.108;2022-08-03T10:27:23;6.70;;;0.28;;
37241;SDS011;23135;51.078;12.108;2022-08-03T10:29:51;1.50;;;0.10;;
37241;SDS011;23135;51.078;12.108;2022-08-03T10:32:21;1.83;;;0.00;;
37241;SDS011;23135;51.078;12.108;2022-08-03T10:37:36;0.20;;;0.00;;
37241;SDS011;23135;51.078;12.108;2022-08-03T10:40:07;2.05;;;0.10;;
37241;SDS011;23135;51.078;12.108;2022-08-03T10:42:37;5.30;;;0.10;;
37241;SDS011;23135;51.078;12.108;2022-08-03T10:45:04;2.55;;;0.08;;
37241;SDS011;23135;51.078;12.108;2022-08-03T10:47:33;2.63;;;0.10;;
37241;SDS011;23135;51.078;12.108;2022-08-03T10:50:00;1.65;;;0.00;;
37241;SDS011;23135;51.078;12.108;2022-08-03T10:52:27;2.45;;;0.00;;
37241;SDS011;23135;51.078;12.108;2022-08-03T10:54:52;0.55;;;0.00;;
37241;SDS011;23135;51.078;12.108;2022-08-03T10:57:52;2.60;;;0.10;;
37241;SDS011;23135;51.078;12.108;2022-08-03T11:00:19;0.35;;;0.00;;
37241;SDS011;23135;51.078;12.108;2022-08-03T11:03:05;3.17;;;0.10;;
37241;SDS011;23135;51.078;12.108;2022-08-03T11:05:41;2.17;;;0.00;;
37241;SDS011;23135;51.078;12.108;2022-08-03T11:10:54;1.80;;;0.00;;
37241;SDS011;23135;51.078;12.108;2022-08-03T11:13:25;0.77;;;0.10;;
37241;SDS011;23135;51.078;12.108;2022-08-03T11:15:55;0.08;;;0.00;;
37241;SDS011;23135;51.078;12.108;2022-08-03T11:18:24;2.03;;;0.03;;
37241;SDS011;23135;51.078;12.108;2022-08-03T11:20:54;1.08;;;0.10;;
37241;SDS011;23135;51.078;12.108;2022-08-03T11:28:39;0.60;;;0.10;;
37241;SDS011;23135;51.078;12.108;2022-08-03T11:34:02;0.13;;;0.00;;
37241;SDS011;23135;51.078;12.108;2022-08-03T11:39:41;3.65;;;0.10;;
37241;SDS011;23135;51.078;12.108;2022-08-03T11:42:52;0.82;;;0.00;;
37241;SDS011;23135;51.078;12.108;2022-08-03T11:44:59;0.32;;;0.00;;
37241;SDS011;23135;51.078;12.108;2022-08-03T11:47:28;1.88;;;0.00;;
37241;SDS011;23135;51.078;12.108;2022-08-03T11:49:56;0.10;;;0.00;;
37241;SDS011;23135;51.078;12.108;2022-08-03T11:52:25;2.35;;;0.20;;
37241;SDS011;23135;51.078;12.108;2022-08-03T11:54:57;3.38;;;0.00;;
37241;SDS011;23135;51.078;12.108;2022-08-03T11:57:30;0.17;;;0.10;;
37241;SDS011;23135;51.078;12.108;2022-08-03T11:59:56;0.47;;;0.08;;
37241;SDS011;23135;51.078;12.108;2022-08-03T12:02:22;2.45;;;0.00;;
37241;SDS011;23135;51.078;12.108;2022-08-03T12:07:22;0.15;;;0.00;;
37241;SDS011;23135;51.078;12.108;2022-08-03T12:12:35;1.75;;;0.00;;
37241;SDS011;23135;51.078;12.108;2022-08-03T12:15:01;0.30;;;0.10;;
37241;SDS011;23135;51.078;12.108;2022-08-03T12:17:38;4.18;;;0.38;;
37241;SDS011;23135;51.078;12.108;2022-08-03T12:20:07;1.35;;;0.20;;
37241;SDS011;23135;51.078;12.108;2022-08-03T12:22:35;1.20;;;0.10;;
37241;SDS011;23135;51.078;12.108;2022-08-03T12:25:05;0.95;;;0.15;;
37241;SDS011;23135;51.078;12.108;2022-08-03T12:27:32;0.93;;;0.10;;
37241;SDS011;23135;51.078;12.108;2022-08-03T12:29:58;1.92;;;0.05;;
37241;SDS011;23135;51.078;12.108;2022-08-03T12:32:28;1.80;;;0.10;;
37241;SDS011;23135;51.078;12.108;2022-08-03T12:34:55;1.45;;;0.00;;
37241;SDS011;23135;51.078;12.108;2022-08-03T12:37:24;3.42;;;0.00;;
37241;SDS011;23135;51.078;12.108;2022-08-03T12:39:51;1.20;;;0.00;;
37241;SDS011;23135;51.078;12.108;2022-08-03T12:42:18;2.50;;;0.00;;
37241;SDS011;23135;51.078;12.108;2022-08-03T12:44:44;4.80;;;0.00;;
37241;SDS011;23135;51.078;12.108;2022-08-03T12:47:14;1.55;;;0.10;;
37241;SDS011;23135;51.078;12.108;2022-08-03T12:49:47;2.13;;;0.10;;
37241;SDS011;23135;51.078;12.108;2022-08-03T12:52:14;3.00;;;0.10;;
37241;SDS011;23135;51.078;12.108;2022-08-03T12:54:40;3.50;;;0.00;;
37241;SDS011;23135;51.078;12.108;2022-08-03T12:57:07;1.25;;;0.10;;
37241;SDS011;23135;51.078;12.108;2022-08-03T12:59:35;0.52;;;0.00;;
37241;SDS011;23135;51.078;12.108;2022-08-03T13:02:18;0.25;;;0.00;;
37241;SDS011;23135;51.078;12.108;2022-08-03T13:04:47;1.90;;;0.00;;
37241;SDS011;23135;51.078;12.108;2022-08-03T13:07:14;1.90;;;0.10;;
37241;SDS011;23135;51.078;12.108;2022-08-03T13:09:41;0.20;;;0.20;;
37241;SDS011;23135;51.078;12.108;2022-08-03T13:12:09;1.27;;;0.22;;
37241;SDS011;23135;51.078;12.108;2022-08-03T13:14:41;3.17;;;0.52;;
37241;SDS011;23135;51.078;12.108;2022-08-03T13:17:08;1.75;;;0.30;;
37241;SDS011;23135;51.078;12.108;2022-08-03T13:19:35;0.80;;;0.38;;
37241;SDS011;23135;51.078;12.108;2022-08-03T13:22:11;1.23;;;0.10;;
37241;SDS011;23135;51.078;12.108;2022-08-03T13:24:39;1.85;;;0.10;;
37241;SDS011;23135;51.078;12.108;2022-08-03T13:27:05;2.85;;;0.10;;
37241;SDS011;23135;51.078;12.108;2022-08-03T13:29:31;0.45;;;0.00;;
37241;SDS011;23135;51.078;12.108;2022-08-03T13:31:57;1.85;;;0.10;;
37241;SDS011;23135;51.078;12.108;2022-08-03T13:34:23;1.35;;;0.00;;
37241;SDS011;23135;51.078;12.108;2022-08-03T13:36:48;0.88;;;0.10;;
37241;SDS011;23135;51.078;12.108;2022-08-03T13:39:14;0.28;;;0.03;;
37241;SDS011;23135;51.078;12.108;2022-08-03T13:41:40;4.15;;;0.10;;
37241;SDS011;23135;51.078;12.108;2022-08-03T13:44:05;3.97;;;0.10;;
37241;SDS011;23135;51.078;12.108;2022-08-03T13:46:31;0.88;;;0.00;;
37241;SDS011;23135;51.078;12.108;2022-08-03T13:48:56;3.33;;;0.30;;
37241;SDS011;23135;51.078;12.108;2022-08-03T13:51:22;0.08;;;0.00;;
37241;SDS011;23135;51.078;12.108;2022-08-03T13:53:48;0.00;;;0.00;;
37241;SDS011;23135;51.078;12.108;2022-08-03T13:56:15;1.65;;;0.00;;
37241;SDS011;23135;51.078;12.108;2022-08-03T13:58:40;0.05;;;0.00;;
37241;SDS011;23135;51.078;12.108;2022-08-03T14:01:06;0.55;;;0.10;;
37241;SDS011;23135;51.078;12.108;2022-08-03T14:03:32;0.77;;;0.00;;
37241;SDS011;23135;51.078;12.108;2022-08-03T14:05:58;0.43;;;0.10;;
37241;SDS011;23135;51.078;12.108;2022-08-03T14:08:23;0.50;;;0.00;;
37241;SDS011;23135;51.078;12.108;2022-08-03T14:10:49;0.93;;;0.10;;
37241;SDS011;23135;51.078;12.108;2022-08-03T14:13:14;3.88;;;0.20;;
37241;SDS011;23135;51.078;12.108;2022-08-03T14:15:40;1.98;;;0.10;;
37241;SDS011;23135;51.078;12.108;2022-08-03T14:18:06;3.33;;;0.10;;
37241;SDS011;23135;51.078;12.108;2022-08-03T14:20:33;2.97;;;0.10;;
37241;SDS011;23135;51.078;12.108;2022-08-03T14:22:58;0.10;;;0.10;;
37241;SDS011;23135;51.078;12.108;2022-08-03T14:25:24;0.65;;;0.10;;
37241;SDS011;23135;51.078;12.108;2022-08-03T14:27:49;3.83;;;0.10;;
37241;SDS011;23135;51.078;12.108;2022-08-03T14:30:15;0.73;;;0.10;;
37241;SDS011;23135;51.078;12.108;2022-08-03T14:32:41;0.28;;;0.00;;
37241;SDS011;23135;51.078;12.108;2022-08-03T14:35:07;3.95;;;0.10;;
37241;SDS011;23135;51.078;12.108;2022-08-03T14:37:33;0.13;;;0.00;;
37241;SDS011;23135;51.078;12.108;2022-08-03T14:39:58;5.05;;;0.28;;
37241;SDS011;23135;51.078;12.108;2022-08-03T14:42:24;0.95;;;0.20;;
37241;SDS011;23135;51.078;12.108;2022-08-03T14:44:50;0.08;;;0.00;;
37241;SDS011;23135;51.078;12.108;2022-08-03T14:47:15;0.98;;;0.00;;
37241;SDS011;23135;51.078;12.108;2022-08-03T14:49:41;0.43;;;0.00;;
37241;SDS011;23135;51.078;12.108;2022-08-03T14:52:07;2.92;;;0.00;;
37241;SDS011;23135;51.078;12.108;2022-08-03T14:54:33;2.78;;;0.10;;
37241;SDS011;23135;51.078;12.108;2022-08-03T14:56:58;3.53;;;0.43;;
37241;SDS011;23135;51.078;12.108;2022-08-03T14:59:24;5.35;;;0.10;;
37241;SDS011;23135;51.078;12.108;2022-08-03T15:01:51;2.92;;;0.10;;
37241;SDS011;23135;51.078;12.108;2022-08-03T15:04:16;2.30;;;0.10;;
37241;SDS011;23135;51.078;12.108;2022-08-03T15:06:42;1.80;;;0.00;;
37241;SDS011;23135;51.078;12.108;2022-08-03T15:09:08;1.95;;;0.30;;
37241;SDS011;23135;51.078;12.108;2022-08-03T15:11:33;2.00;;;0.17;;
37241;SDS011;23135;51.078;12.108;2022-08-03T15:14:00;0.20;;;0.10;;
37241;SDS011;23135;51.078;12.108;2022-08-03T15:16:25;0.43;;;0.10;;